sensor_id;sensor_type;location;lat;lon;timestamp;P1;durP1;ratioP1;P2;durP2;ratioP2
20399;SDS011;10359;53.596;22.520;2023-04-25T00:01:25;4.67;;;3.40;;
20399;SDS011;10359;53.596;22.520;2023-04-25T00:03:54;4.70;;;3.37;;
20399;SDS011;10359;53.596;22.520;2023-04-25T00:06:24;4.07;;;3.50;;
20399;SDS011;10359;53.596;22.520;2023-04-25T00:08:54;4.63;;;3.60;;
20399;SDS011;10359;53.596;22.520;2023-04-25T00:11:25;4.03;;;3.63;;
20399;SDS011;10359;53.596;22.520;2023-04-25T00:13:55;3.93;;;3.60;;
20399;SDS011;10359;53.596;22.520;2023-04-25T00:16:24;3.87;;;3.47;;
20399;SDS011;10359;53.596;22.520;2023-04-25T00:18:54;5.03;;;3.60;;
20399;SDS011;10359;53.596;22.520;2023-04-25T00:21:23;8.13;;;4.40;;
20399;SDS011;10359;53.596;22.520;2023-04-25T00:23:52;5.60;;;3.87;;
20399;SDS011;10359;53.596;22.520;2023-04-25T00:26:22;4.63;;;3.40;;
20399;SDS011;10359;53.596;22.520;2023-04-25T00:28:53;4.83;;;3.60;;
20399;SDS011;10359;53.596;22.520;2023-04-25T00:31:22;4.03;;;3.63;;
20399;SDS011;10359;53.596;22.520;2023-04-25T00:33:52;4.17;;;3.67;;
20399;SDS011;10359;53.596;22.520;2023-04-25T00:36:21;5.77;;;3.70;;
20399;SDS011;10359;53.596;22.520;2023-04-25T00:38:50;4.00;;;3.60;;
20399;SDS011;10359;53.596;22.520;2023-04-25T00:41:22;5.60;;;3.60;;
20399;SDS011;10359;53.596;22.520;2023-04-25T00:43:53;4.00;;;3.60;;
20399;SDS011;10359;53.596;22.520;2023-04-25T00:46:23;4.70;;;3.80;;
20399;SDS011;10359;53.596;22.520;2023-04-25T00:48:53;4.10;;;3.70;;
20399;SDS011;10359;53.596;22.520;2023-04-25T00:51:22;4.33;;;3.93;;
20399;SDS011;10359;53.596;22.520;2023-04-25T00:53:52;5.50;;;3.30;;
20399;SDS011;10359;53.596;22.520;2023-04-25T00:56:22;3.83;;;3.43;;
20399;SDS011;10359;53.596;22.520;2023-04-25T00:58:53;4.50;;;3.57;;
20399;SDS011;10359;53.596;22.520;2023-04-25T01:01:23;6.40;;;3.60;;
20399;SDS011;10359;53.596;22.520;2023-04-25T01:03:53;5.27;;;3.50;;
20399;SDS011;10359;53.596;22.520;2023-04-25T01:06:23;4.73;;;4.00;;
20399;SDS011;10359;53.596;22.520;2023-04-25T01:08:54;7.00;;;3.93;;
20399;SDS011;10359;53.596;22.520;2023-04-25T01:11:23;4.17;;;3.67;;
20399;SDS011;10359;53.596;22.520;2023-04-25T01:13:54;5.20;;;3.70;;
20399;SDS011;10359;53.596;22.520;2023-04-25T01:16:23;4.83;;;3.50;;
20399;SDS011;10359;53.596;22.520;2023-04-25T01:18:54;4.13;;;3.60;;
20399;SDS011;10359;53.596;22.520;2023-04-25T01:21:25;5.83;;;3.70;;
20399;SDS011;10359;53.596;22.520;2023-04-25T01:23:57;4.77;;;3.83;;
20399;SDS011;10359;53.596;22.520;2023-04-25T01:26:27;6.00;;;3.90;;
20399;SDS011;10359;53.596;22.520;2023-04-25T01:28:56;4.73;;;3.40;;
20399;SDS011;10359;53.596;22.520;2023-04-25T01:31:27;4.23;;;3.70;;
20399;SDS011;10359;53.596;22.520;2023-04-25T01:33:57;4.00;;;3.70;;
20399;SDS011;10359;53.596;22.520;2023-04-25T01:36:28;4.27;;;3.57;;
20399;SDS011;10359;53.596;22.520;2023-04-25T01:38:58;6.30;;;3.80;;
20399;SDS011;10359;53.596;22.520;2023-04-25T01:41:28;4.43;;;3.53;;
20399;SDS011;10359;53.596;22.520;2023-04-25T01:43:57;4.80;;;4.00;;
20399;SDS011;10359;53.596;22.520;2023-04-25T01:46:27;7.93;;;4.33;;
20399;SDS011;10359;53.596;22.520;2023-04-25T01:48:57;4.27;;;3.87;;
20399;SDS011;10359;53.596;22.520;2023-04-25T01:51:26;5.43;;;3.87;;
20399;SDS011;10359;53.596;22.520;2023-04-25T01:53:57;4.60;;;4.00;;
20399;SDS011;10359;53.596;22.520;2023-04-25T01:56:29;4.30;;;3.90;;
20399;SDS011;10359;53.596;22.520;2023-04-25T01:58:59;5.53;;;4.37;;
20399;SDS011;10359;53.596;22.520;2023-04-25T02:01:29;4.50;;;4.10;;
20399;SDS011;10359;53.596;22.520;2023-04-25T02:03:58;4.40;;;3.97;;
20399;SDS011;10359;53.596;22.520;2023-04-25T02:06:28;5.30;;;3.73;;
20399;SDS011;10359;53.596;22.520;2023-04-25T02:08:59;4.30;;;3.90;;
20399;SDS011;10359;53.596;22.520;2023-04-25T02:11:35;4.90;;;4.40;;
20399;SDS011;10359;53.596;22.520;2023-04-25T02:14:20;5.20;;;4.00;;
20399;SDS011;10359;53.596;22.520;2023-04-25T02:16:50;5.10;;;4.07;;
20399;SDS011;10359;53.596;22.520;2023-04-25T02:19:21;5.97;;;4.47;;
20399;SDS011;10359;53.596;22.520;2023-04-25T02:21:50;5.27;;;4.10;;
20399;SDS011;10359;53.596;22.520;2023-04-25T02:24:20;5.13;;;4.27;;
20399;SDS011;10359;53.596;22.520;2023-04-25T02:26:50;5.67;;;4.20;;
20399;SDS011;10359;53.596;22.520;2023-04-25T02:29:19;4.83;;;4.00;;
20399;SDS011;10359;53.596;22.520;2023-04-25T02:31:49;6.20;;;4.13;;
20399;SDS011;10359;53.596;22.520;2023-04-25T02:34:18;8.30;;;4.30;;
20399;SDS011;10359;53.596;22.520;2023-04-25T02:36:48;4.67;;;4.27;;
20399;SDS011;10359;53.596;22.520;2023-04-25T02:39:17;5.33;;;4.20;;
20399;SDS011;10359;53.596;22.520;2023-04-25T02:41:50;4.60;;;4.17;;
20399;SDS011;10359;53.596;22.520;2023-04-25T02:44:20;4.60;;;4.20;;
20399;SDS011;10359;53.596;22.520;2023-04-25T02:46:50;5.30;;;4.37;;
20399;SDS011;10359;53.596;22.520;2023-04-25T02:49:19;4.93;;;4.23;;
20399;SDS011;10359;53.596;22.520;2023-04-25T02:51:49;7.27;;;4.33;;
20399;SDS011;10359;53.596;22.520;2023-04-25T02:54:18;5.53;;;4.20;;
20399;SDS011;10359;53.596;22.520;2023-04-25T02:56:48;4.87;;;4.03;;
20399;SDS011;10359;53.596;22.520;2023-04-25T02:59:18;10.43;;;4.63;;
20399;SDS011;10359;53.596;22.520;2023-04-25T03:01:48;4.70;;;4.13;;
20399;SDS011;10359;53.596;22.520;2023-04-25T03:04:17;5.00;;;4.50;;
20399;SDS011;10359;53.596;22.520;2023-04-25T03:06:48;5.67;;;4.67;;
20399;SDS011;10359;53.596;22.520;2023-04-25T03:09:17;5.77;;;4.43;;
20399;SDS011;10359;53.596;22.520;2023-04-25T03:11:46;5.53;;;4.07;;
20399;SDS011;10359;53.596;22.520;2023-04-25T03:14:17;5.47;;;4.17;;
20399;SDS011;10359;53.596;22.520;2023-04-25T03:16:47;4.53;;;3.93;;
20399;SDS011;10359;53.596;22.520;2023-04-25T03:19:17;4.77;;;4.27;;
20399;SDS011;10359;53.596;22.520;2023-04-25T03:21:47;4.80;;;4.30;;
20399;SDS011;10359;53.596;22.520;2023-04-25T03:24:16;4.70;;;4.30;;
20399;SDS011;10359;53.596;22.520;2023-04-25T03:26:45;6.73;;;4.90;;
20399;SDS011;10359;53.596;22.520;2023-04-25T03:29:15;6.27;;;4.77;;
20399;SDS011;10359;53.596;22.520;2023-04-25T03:31:46;5.20;;;4.40;;
20399;SDS011;10359;53.596;22.520;2023-04-25T03:34:15;5.33;;;4.63;;
20399;SDS011;10359;53.596;22.520;2023-04-25T03:36:44;5.00;;;4.20;;
20399;SDS011;10359;53.596;22.520;2023-04-25T03:39:13;6.17;;;4.90;;
20399;SDS011;10359;53.596;22.520;2023-04-25T03:41:43;5.57;;;4.57;;
20399;SDS011;10359;53.596;22.520;2023-04-25T03:44:12;5.07;;;4.57;;
20399;SDS011;10359;53.596;22.520;2023-04-25T03:46:42;5.83;;;4.63;;
20399;SDS011;10359;53.596;22.520;2023-04-25T03:49:12;6.23;;;4.43;;
20399;SDS011;10359;53.596;22.520;2023-04-25T03:51:44;5.93;;;4.60;;
20399;SDS011;10359;53.596;22.520;2023-04-25T03:54:14;5.10;;;4.60;;
20399;SDS011;10359;53.596;22.520;2023-04-25T03:56:43;6.20;;;4.53;;
20399;SDS011;10359;53.596;22.520;2023-04-25T03:59:13;5.03;;;4.50;;
20399;SDS011;10359;53.596;22.520;2023-04-25T04:01:43;6.50;;;4.80;;
20399;SDS011;10359;53.596;22.520;2023-04-25T04:04:14;5.63;;;4.70;;
20399;SDS011;10359;53.596;22.520;2023-04-25T04:06:44;5.70;;;5.00;;
20399;SDS011;10359;53.596;22.520;2023-04-25T04:09:14;6.20;;;4.77;;
20399;SDS011;10359;53.596;22.520;2023-04-25T04:11:44;5.90;;;4.77;;
20399;SDS011;10359;53.596;22.520;2023-04-25T04:14:13;5.13;;;4.70;;
20399;SDS011;10359;53.596;22.520;2023-04-25T04:16:42;5.97;;;4.60;;
20399;SDS011;10359;53.596;22.520;2023-04-25T04:19:12;7.80;;;5.00;;
20399;SDS011;10359;53.596;22.520;2023-04-25T04:21:43;10.83;;;5.07;;
20399;SDS011;10359;53.596;22.520;2023-04-25T04:24:12;11.77;;;6.10;;
20399;SDS011;10359;53.596;22.520;2023-04-25T04:26:42;7.67;;;6.07;;
20399;SDS011;10359;53.596;22.520;2023-04-25T04:29:12;9.30;;;6.90;;
20399;SDS011;10359;53.596;22.520;2023-04-25T04:31:49;7.83;;;6.27;;
20399;SDS011;10359;53.596;22.520;2023-04-25T04:34:21;7.97;;;5.77;;
20399;SDS011;10359;53.596;22.520;2023-04-25T04:36:51;5.37;;;4.87;;
20399;SDS011;10359;53.596;22.520;2023-04-25T04:39:21;6.10;;;5.47;;
20399;SDS011;10359;53.596;22.520;2023-04-25T04:41:50;6.53;;;5.73;;
20399;SDS011;10359;53.596;22.520;2023-04-25T04:44:20;5.70;;;5.10;;
20399;SDS011;10359;53.596;22.520;2023-04-25T04:46:49;6.33;;;4.83;;
20399;SDS011;10359;53.596;22.520;2023-04-25T04:49:20;6.17;;;4.97;;
20399;SDS011;10359;53.596;22.520;2023-04-25T04:51:55;6.17;;;5.40;;
20399;SDS011;10359;53.596;22.520;2023-04-25T04:54:26;5.43;;;4.93;;
20399;SDS011;10359;53.596;22.520;2023-04-25T04:56:56;5.50;;;4.93;;
20399;SDS011;10359;53.596;22.520;2023-04-25T04:59:25;7.80;;;5.07;;
20399;SDS011;10359;53.596;22.520;2023-04-25T05:01:55;6.10;;;4.90;;
20399;SDS011;10359;53.596;22.520;2023-04-25T05:04:26;6.43;;;4.97;;
20399;SDS011;10359;53.596;22.520;2023-04-25T05:06:56;9.40;;;5.73;;
20399;SDS011;10359;53.596;22.520;2023-04-25T05:09:30;6.70;;;5.37;;
20399;SDS011;10359;53.596;22.520;2023-04-25T05:11:59;8.37;;;5.43;;
20399;SDS011;10359;53.596;22.520;2023-04-25T05:14:29;6.53;;;5.40;;
20399;SDS011;10359;53.596;22.520;2023-04-25T05:16:59;5.43;;;4.83;;
20399;SDS011;10359;53.596;22.520;2023-04-25T05:19:33;5.87;;;5.23;;
20399;SDS011;10359;53.596;22.520;2023-04-25T05:22:02;8.57;;;5.43;;
20399;SDS011;10359;53.596;22.520;2023-04-25T05:24:32;6.03;;;5.43;;
20399;SDS011;10359;53.596;22.520;2023-04-25T05:27:01;6.47;;;5.83;;
20399;SDS011;10359;53.596;22.520;2023-04-25T05:29:30;7.47;;;5.90;;
20399;SDS011;10359;53.596;22.520;2023-04-25T05:32:00;7.00;;;5.70;;
20399;SDS011;10359;53.596;22.520;2023-04-25T05:34:29;7.60;;;6.03;;
20399;SDS011;10359;53.596;22.520;2023-04-25T05:37:00;7.67;;;6.17;;
20399;SDS011;10359;53.596;22.520;2023-04-25T05:39:29;7.93;;;5.87;;
20399;SDS011;10359;53.596;22.520;2023-04-25T05:41:58;8.43;;;5.73;;
20399;SDS011;10359;53.596;22.520;2023-04-25T05:44:28;7.37;;;5.90;;
20399;SDS011;10359;53.596;22.520;2023-04-25T05:46:58;7.53;;;5.93;;
20399;SDS011;10359;53.596;22.520;2023-04-25T05:49:28;7.53;;;6.40;;
20399;SDS011;10359;53.596;22.520;2023-04-25T05:51:57;6.80;;;6.20;;
20399;SDS011;10359;53.596;22.520;2023-04-25T05:54:28;8.07;;;6.33;;
20399;SDS011;10359;53.596;22.520;2023-04-25T05:56:57;7.00;;;6.30;;
20399;SDS011;10359;53.596;22.520;2023-04-25T05:59:26;7.40;;;6.70;;
20399;SDS011;10359;53.596;22.520;2023-04-25T06:01:55;7.40;;;6.13;;
20399;SDS011;10359;53.596;22.520;2023-04-25T06:04:25;7.47;;;6.37;;
20399;SDS011;10359;53.596;22.520;2023-04-25T06:06:54;7.03;;;6.33;;
20399;SDS011;10359;53.596;22.520;2023-04-25T06:09:25;9.60;;;7.17;;
20399;SDS011;10359;53.596;22.520;2023-04-25T06:11:54;8.00;;;7.20;;
20399;SDS011;10359;53.596;22.520;2023-04-25T06:14:24;8.40;;;7.50;;
20399;SDS011;10359;53.596;22.520;2023-04-25T06:16:55;7.80;;;6.90;;
20399;SDS011;10359;53.596;22.520;2023-04-25T06:19:24;9.80;;;6.90;;
20399;SDS011;10359;53.596;22.520;2023-04-25T06:21:54;7.77;;;6.90;;
20399;SDS011;10359;53.596;22.520;2023-04-25T06:24:24;8.20;;;7.13;;
20399;SDS011;10359;53.596;22.520;2023-04-25T06:26:54;7.83;;;7.03;;
20399;SDS011;10359;53.596;22.520;2023-04-25T06:29:23;9.33;;;7.27;;
20399;SDS011;10359;53.596;22.520;2023-04-25T06:31:52;8.77;;;7.13;;
20399;SDS011;10359;53.596;22.520;2023-04-25T06:34:22;9.67;;;7.30;;
20399;SDS011;10359;53.596;22.520;2023-04-25T06:36:51;10.67;;;7.50;;
20399;SDS011;10359;53.596;22.520;2023-04-25T06:39:20;8.40;;;7.00;;
20399;SDS011;10359;53.596;22.520;2023-04-25T06:41:51;7.97;;;7.17;;
20399;SDS011;10359;53.596;22.520;2023-04-25T06:44:21;8.87;;;7.37;;
20399;SDS011;10359;53.596;22.520;2023-04-25T06:46:52;9.43;;;7.47;;
20399;SDS011;10359;53.596;22.520;2023-04-25T06:49:22;7.90;;;7.07;;
20399;SDS011;10359;53.596;22.520;2023-04-25T06:51:51;11.70;;;7.40;;
20399;SDS011;10359;53.596;22.520;2023-04-25T06:54:20;12.47;;;7.50;;
20399;SDS011;10359;53.596;22.520;2023-04-25T06:56:53;8.03;;;7.00;;
20399;SDS011;10359;53.596;22.520;2023-04-25T06:59:22;8.03;;;7.23;;
20399;SDS011;10359;53.596;22.520;2023-04-25T07:01:51;8.17;;;7.37;;
20399;SDS011;10359;53.596;22.520;2023-04-25T07:04:21;9.53;;;8.43;;
20399;SDS011;10359;53.596;22.520;2023-04-25T07:06:50;9.67;;;8.27;;
20399;SDS011;10359;53.596;22.520;2023-04-25T07:09:20;9.27;;;8.37;;
20399;SDS011;10359;53.596;22.520;2023-04-25T07:11:49;9.07;;;8.17;;
20399;SDS011;10359;53.596;22.520;2023-04-25T07:14:20;9.57;;;8.67;;
20399;SDS011;10359;53.596;22.520;2023-04-25T07:16:49;9.40;;;8.50;;
20399;SDS011;10359;53.596;22.520;2023-04-25T07:19:19;9.03;;;8.13;;
20399;SDS011;10359;53.596;22.520;2023-04-25T07:21:48;9.83;;;8.80;;
20399;SDS011;10359;53.596;22.520;2023-04-25T07:24:19;9.97;;;8.40;;
20399;SDS011;10359;53.596;22.520;2023-04-25T07:26:49;10.13;;;9.13;;
20399;SDS011;10359;53.596;22.520;2023-04-25T07:29:19;12.37;;;9.87;;
20399;SDS011;10359;53.596;22.520;2023-04-25T07:31:49;10.90;;;9.67;;
20399;SDS011;10359;53.596;22.520;2023-04-25T07:34:18;12.00;;;9.80;;
20399;SDS011;10359;53.596;22.520;2023-04-25T07:36:48;12.97;;;10.43;;
20399;SDS011;10359;53.596;22.520;2023-04-25T07:39:17;13.53;;;11.30;;
20399;SDS011;10359;53.596;22.520;2023-04-25T07:41:47;13.57;;;11.17;;
20399;SDS011;10359;53.596;22.520;2023-04-25T07:44:20;12.33;;;11.03;;
20399;SDS011;10359;53.596;22.520;2023-04-25T07:46:50;13.63;;;11.50;;
20399;SDS011;10359;53.596;22.520;2023-04-25T07:49:19;13.63;;;12.43;;
20399;SDS011;10359;53.596;22.520;2023-04-25T07:51:49;13.30;;;11.60;;
20399;SDS011;10359;53.596;22.520;2023-04-25T07:54:18;13.43;;;12.13;;
20399;SDS011;10359;53.596;22.520;2023-04-25T07:56:48;13.30;;;12.00;;
20399;SDS011;10359;53.596;22.520;2023-04-25T07:59:20;15.50;;;12.87;;
20399;SDS011;10359;53.596;22.520;2023-04-25T08:01:50;14.13;;;12.73;;
20399;SDS011;10359;53.596;22.520;2023-04-25T08:04:20;13.97;;;12.57;;
20399;SDS011;10359;53.596;22.520;2023-04-25T08:06:49;14.17;;;12.77;;
20399;SDS011;10359;53.596;22.520;2023-04-25T08:09:19;14.30;;;12.80;;
20399;SDS011;10359;53.596;22.520;2023-04-25T08:11:49;14.47;;;12.60;;
20399;SDS011;10359;53.596;22.520;2023-04-25T08:14:18;15.17;;;13.00;;
20399;SDS011;10359;53.596;22.520;2023-04-25T08:16:49;15.07;;;13.47;;
20399;SDS011;10359;53.596;22.520;2023-04-25T08:19:19;16.30;;;13.60;;
20399;SDS011;10359;53.596;22.520;2023-04-25T08:21:48;13.77;;;12.23;;
20399;SDS011;10359;53.596;22.520;2023-04-25T08:24:18;16.03;;;12.57;;
20399;SDS011;10359;53.596;22.520;2023-04-25T08:26:48;13.87;;;12.40;;
20399;SDS011;10359;53.596;22.520;2023-04-25T08:29:18;13.87;;;12.30;;
20399;SDS011;10359;53.596;22.520;2023-04-25T08:31:50;14.10;;;12.40;;
20399;SDS011;10359;53.596;22.520;2023-04-25T08:34:20;14.03;;;12.57;;
20399;SDS011;10359;53.596;22.520;2023-04-25T08:36:49;15.03;;;13.53;;
20399;SDS011;10359;53.596;22.520;2023-04-25T08:39:19;15.33;;;13.40;;
20399;SDS011;10359;53.596;22.520;2023-04-25T08:41:48;15.03;;;13.53;;
20399;SDS011;10359;53.596;22.520;2023-04-25T08:44:19;13.37;;;12.03;;
20399;SDS011;10359;53.596;22.520;2023-04-25T08:46:52;16.23;;;14.37;;
20399;SDS011;10359;53.596;22.520;2023-04-25T08:49:21;15.00;;;13.37;;
20399;SDS011;10359;53.596;22.520;2023-04-25T08:51:51;15.93;;;14.00;;
20399;SDS011;10359;53.596;22.520;2023-04-25T08:54:24;17.33;;;13.63;;
20399;SDS011;10359;53.596;22.520;2023-04-25T08:57:02;14.73;;;12.83;;
20399;SDS011;10359;53.596;22.520;2023-04-25T08:59:32;13.57;;;12.20;;
20399;SDS011;10359;53.596;22.520;2023-04-25T09:02:06;14.63;;;13.10;;
20399;SDS011;10359;53.596;22.520;2023-04-25T09:04:35;16.57;;;13.57;;
20399;SDS011;10359;53.596;22.520;2023-04-25T09:07:05;14.67;;;13.17;;
20399;SDS011;10359;53.596;22.520;2023-04-25T09:09:34;15.13;;;13.63;;
20399;SDS011;10359;53.596;22.520;2023-04-25T09:12:04;15.00;;;13.50;;
20399;SDS011;10359;53.596;22.520;2023-04-25T09:14:34;16.70;;;14.13;;
20399;SDS011;10359;53.596;22.520;2023-04-25T09:17:03;16.23;;;14.13;;
20399;SDS011;10359;53.596;22.520;2023-04-25T09:19:35;15.93;;;14.33;;
20399;SDS011;10359;53.596;22.520;2023-04-25T09:22:07;16.37;;;14.77;;
20399;SDS011;10359;53.596;22.520;2023-04-25T09:24:37;16.30;;;14.20;;
20399;SDS011;10359;53.596;22.520;2023-04-25T09:27:08;19.27;;;13.90;;
20399;SDS011;10359;53.596;22.520;2023-04-25T09:29:39;16.03;;;14.33;;
20399;SDS011;10359;53.596;22.520;2023-04-25T09:32:15;16.40;;;13.43;;
20399;SDS011;10359;53.596;22.520;2023-04-25T09:34:47;17.27;;;13.87;;
20399;SDS011;10359;53.596;22.520;2023-04-25T09:37:18;15.77;;;14.17;;
20399;SDS011;10359;53.596;22.520;2023-04-25T09:39:49;15.93;;;14.33;;
20399;SDS011;10359;53.596;22.520;2023-04-25T09:42:21;20.13;;;14.03;;
20399;SDS011;10359;53.596;22.520;2023-04-25T09:44:52;18.40;;;15.20;;
20399;SDS011;10359;53.596;22.520;2023-04-25T09:47:24;17.17;;;14.33;;
20399;SDS011;10359;53.596;22.520;2023-04-25T09:49:55;16.33;;;14.63;;
20399;SDS011;10359;53.596;22.520;2023-04-25T09:52:25;13.80;;;12.40;;
20399;SDS011;10359;53.596;22.520;2023-04-25T09:54:54;17.97;;;14.37;;
20399;SDS011;10359;53.596;22.520;2023-04-25T09:57:23;17.20;;;13.80;;
20399;SDS011;10359;53.596;22.520;2023-04-25T09:59:53;15.20;;;13.60;;
20399;SDS011;10359;53.596;22.520;2023-04-25T10:02:25;16.23;;;12.33;;
20399;SDS011;10359;53.596;22.520;2023-04-25T10:04:55;12.03;;;10.73;;
20399;SDS011;10359;53.596;22.520;2023-04-25T10:07:26;11.53;;;10.37;;
20399;SDS011;10359;53.596;22.520;2023-04-25T10:10:00;11.50;;;10.30;;
20399;SDS011;10359;53.596;22.520;2023-04-25T10:12:30;12.80;;;11.60;;
20399;SDS011;10359;53.596;22.520;2023-04-25T10:15:02;12.17;;;11.07;;
20399;SDS011;10359;53.596;22.520;2023-04-25T10:17:34;13.07;;;11.70;;
20399;SDS011;10359;53.596;22.520;2023-04-25T10:20:05;12.73;;;11.30;;
20399;SDS011;10359;53.596;22.520;2023-04-25T10:22:38;11.63;;;10.37;;
20399;SDS011;10359;53.596;22.520;2023-04-25T10:25:10;10.63;;;9.60;;
20399;SDS011;10359;53.596;22.520;2023-04-25T10:27:41;10.27;;;9.13;;
20399;SDS011;10359;53.596;22.520;2023-04-25T10:30:13;10.23;;;9.30;;
20399;SDS011;10359;53.596;22.520;2023-04-25T10:32:44;10.23;;;8.63;;
20399;SDS011;10359;53.596;22.520;2023-04-25T10:35:19;11.27;;;10.07;;
20399;SDS011;10359;53.596;22.520;2023-04-25T10:37:59;9.80;;;8.73;;
20399;SDS011;10359;53.596;22.520;2023-04-25T10:40:31;9.97;;;8.97;;
20399;SDS011;10359;53.596;22.520;2023-04-25T10:46:14;10.60;;;8.97;;
20399;SDS011;10359;53.596;22.520;2023-04-25T10:48:50;9.90;;;8.97;;
20399;SDS011;10359;53.596;22.520;2023-04-25T10:51:21;9.67;;;8.43;;
20399;SDS011;10359;53.596;22.520;2023-04-25T10:53:59;8.70;;;7.80;;
20399;SDS011;10359;53.596;22.520;2023-04-25T10:56:29;8.60;;;7.90;;
20399;SDS011;10359;53.596;22.520;2023-04-25T10:59:06;8.93;;;8.03;;
20399;SDS011;10359;53.596;22.520;2023-04-25T11:01:38;9.13;;;8.20;;
20399;SDS011;10359;53.596;22.520;2023-04-25T11:04:22;9.33;;;8.10;;
20399;SDS011;10359;53.596;22.520;2023-04-25T11:07:09;9.80;;;8.00;;
20399;SDS011;10359;53.596;22.520;2023-04-25T11:09:45;8.57;;;7.73;;
20399;SDS011;10359;53.596;22.520;2023-04-25T11:12:15;9.47;;;8.53;;
20399;SDS011;10359;53.596;22.520;2023-04-25T11:14:45;9.13;;;8.23;;
20399;SDS011;10359;53.596;22.520;2023-04-25T11:17:14;8.17;;;7.07;;
20399;SDS011;10359;53.596;22.520;2023-04-25T11:19:45;5.57;;;4.50;;
20399;SDS011;10359;53.596;22.520;2023-04-25T11:22:17;4.60;;;3.30;;
20399;SDS011;10359;53.596;22.520;2023-04-25T11:24:47;3.40;;;3.10;;
20399;SDS011;10359;53.596;22.520;2023-04-25T11:27:17;3.37;;;3.07;;
20399;SDS011;10359;53.596;22.520;2023-04-25T11:29:46;3.40;;;3.10;;
20399;SDS011;10359;53.596;22.520;2023-04-25T11:32:17;4.57;;;3.33;;
20399;SDS011;10359;53.596;22.520;2023-04-25T11:34:49;4.20;;;3.30;;
20399;SDS011;10359;53.596;22.520;2023-04-25T11:37:21;4.13;;;3.83;;
20399;SDS011;10359;53.596;22.520;2023-04-25T11:39:51;4.40;;;4.00;;
20399;SDS011;10359;53.596;22.520;2023-04-25T11:42:20;3.67;;;3.37;;
20399;SDS011;10359;53.596;22.520;2023-04-25T11:44:50;3.63;;;3.27;;
20399;SDS011;10359;53.596;22.520;2023-04-25T11:47:20;3.20;;;3.00;;
20399;SDS011;10359;53.596;22.520;2023-04-25T11:49:57;6.00;;;3.27;;
20399;SDS011;10359;53.596;22.520;2023-04-25T11:52:35;4.10;;;3.47;;
20399;SDS011;10359;53.596;22.520;2023-04-25T11:55:08;3.40;;;3.10;;
20399;SDS011;10359;53.596;22.520;2023-04-25T11:57:41;3.40;;;3.10;;
20399;SDS011;10359;53.596;22.520;2023-04-25T12:00:12;3.60;;;3.30;;
20399;SDS011;10359;53.596;22.520;2023-04-25T12:02:45;3.70;;;3.40;;
20399;SDS011;10359;53.596;22.520;2023-04-25T12:05:17;3.97;;;3.67;;
20399;SDS011;10359;53.596;22.520;2023-04-25T12:08:09;3.97;;;3.50;;
20399;SDS011;10359;53.596;22.520;2023-04-25T12:10:41;4.17;;;3.77;;
20399;SDS011;10359;53.596;22.520;2023-04-25T12:13:17;4.67;;;3.97;;
20399;SDS011;10359;53.596;22.520;2023-04-25T12:15:49;4.73;;;4.33;;
20399;SDS011;10359;53.596;22.520;2023-04-25T12:18:20;4.13;;;3.60;;
20399;SDS011;10359;53.596;22.520;2023-04-25T12:20:53;4.10;;;3.73;;
20399;SDS011;10359;53.596;22.520;2023-04-25T12:23:26;4.00;;;3.70;;
20399;SDS011;10359;53.596;22.520;2023-04-25T12:25:56;3.37;;;3.13;;
20399;SDS011;10359;53.596;22.520;2023-04-25T12:28:26;3.43;;;2.90;;
20399;SDS011;10359;53.596;22.520;2023-04-25T12:30:56;3.20;;;3.00;;
20399;SDS011;10359;53.596;22.520;2023-04-25T12:33:27;3.70;;;3.40;;
20399;SDS011;10359;53.596;22.520;2023-04-25T12:35:59;3.53;;;3.23;;
20399;SDS011;10359;53.596;22.520;2023-04-25T12:38:35;3.60;;;3.30;;
20399;SDS011;10359;53.596;22.520;2023-04-25T12:41:07;4.63;;;4.23;;
20399;SDS011;10359;53.596;22.520;2023-04-25T12:43:37;4.83;;;3.87;;
20399;SDS011;10359;53.596;22.520;2023-04-25T12:46:07;4.27;;;3.90;;
20399;SDS011;10359;53.596;22.520;2023-04-25T12:48:36;4.00;;;3.70;;
20399;SDS011;10359;53.596;22.520;2023-04-25T12:51:07;4.40;;;4.00;;
20399;SDS011;10359;53.596;22.520;2023-04-25T12:53:36;4.73;;;4.23;;
20399;SDS011;10359;53.596;22.520;2023-04-25T12:56:07;4.73;;;4.30;;
20399;SDS011;10359;53.596;22.520;2023-04-25T12:58:36;4.07;;;3.77;;
20399;SDS011;10359;53.596;22.520;2023-04-25T13:01:07;4.80;;;4.40;;
20399;SDS011;10359;53.596;22.520;2023-04-25T13:03:36;4.27;;;3.93;;
20399;SDS011;10359;53.596;22.520;2023-04-25T13:06:08;5.20;;;4.80;;
20399;SDS011;10359;53.596;22.520;2023-04-25T13:08:37;4.87;;;4.47;;
20399;SDS011;10359;53.596;22.520;2023-04-25T13:11:07;5.20;;;4.80;;
20399;SDS011;10359;53.596;22.520;2023-04-25T13:13:37;5.10;;;4.70;;
20399;SDS011;10359;53.596;22.520;2023-04-25T13:16:08;5.50;;;5.00;;
20399;SDS011;10359;53.596;22.520;2023-04-25T13:18:38;7.33;;;5.20;;
20399;SDS011;10359;53.596;22.520;2023-04-25T13:21:10;5.90;;;5.07;;
20399;SDS011;10359;53.596;22.520;2023-04-25T13:23:41;5.10;;;4.60;;
20399;SDS011;10359;53.596;22.520;2023-04-25T13:26:12;5.10;;;4.70;;
20399;SDS011;10359;53.596;22.520;2023-04-25T13:28:41;5.03;;;4.63;;
20399;SDS011;10359;53.596;22.520;2023-04-25T13:31:11;6.10;;;4.23;;
20399;SDS011;10359;53.596;22.520;2023-04-25T13:33:41;4.20;;;3.90;;
20399;SDS011;10359;53.596;22.520;2023-04-25T13:36:13;3.77;;;3.37;;
20399;SDS011;10359;53.596;22.520;2023-04-25T13:38:42;3.40;;;3.20;;
20399;SDS011;10359;53.596;22.520;2023-04-25T13:41:14;3.57;;;3.27;;
20399;SDS011;10359;53.596;22.520;2023-04-25T13:43:45;3.40;;;3.20;;
20399;SDS011;10359;53.596;22.520;2023-04-25T13:46:16;3.60;;;3.30;;
20399;SDS011;10359;53.596;22.520;2023-04-25T13:49:05;3.90;;;3.60;;
20399;SDS011;10359;53.596;22.520;2023-04-25T13:51:40;3.53;;;3.27;;
20399;SDS011;10359;53.596;22.520;2023-04-25T13:54:10;4.20;;;3.90;;
20399;SDS011;10359;53.596;22.520;2023-04-25T13:56:40;4.90;;;4.50;;
20399;SDS011;10359;53.596;22.520;2023-04-25T13:59:10;4.57;;;4.17;;
20399;SDS011;10359;53.596;22.520;2023-04-25T14:01:39;5.70;;;5.13;;
20399;SDS011;10359;53.596;22.520;2023-04-25T14:04:09;5.03;;;4.63;;
20399;SDS011;10359;53.596;22.520;2023-04-25T14:06:40;4.60;;;4.20;;
20399;SDS011;10359;53.596;22.520;2023-04-25T14:09:10;4.00;;;3.60;;
20399;SDS011;10359;53.596;22.520;2023-04-25T14:11:40;4.17;;;3.80;;
20399;SDS011;10359;53.596;22.520;2023-04-25T14:14:09;4.33;;;3.93;;
20399;SDS011;10359;53.596;22.520;2023-04-25T14:16:39;4.40;;;4.00;;
20399;SDS011;10359;53.596;22.520;2023-04-25T14:19:08;4.70;;;4.30;;
20399;SDS011;10359;53.596;22.520;2023-04-25T14:21:40;4.80;;;4.40;;
20399;SDS011;10359;53.596;22.520;2023-04-25T14:24:09;5.07;;;4.60;;
20399;SDS011;10359;53.596;22.520;2023-04-25T14:26:39;5.00;;;4.60;;
20399;SDS011;10359;53.596;22.520;2023-04-25T14:29:09;6.10;;;5.60;;
20399;SDS011;10359;53.596;22.520;2023-04-25T14:31:40;5.20;;;4.80;;
20399;SDS011;10359;53.596;22.520;2023-04-25T14:34:09;5.87;;;5.37;;
20399;SDS011;10359;53.596;22.520;2023-04-25T14:36:40;6.17;;;4.90;;
20399;SDS011;10359;53.596;22.520;2023-04-25T14:39:10;5.40;;;4.90;;
20399;SDS011;10359;53.596;22.520;2023-04-25T14:41:39;5.17;;;4.40;;
20399;SDS011;10359;53.596;22.520;2023-04-25T14:44:08;6.10;;;5.60;;
20399;SDS011;10359;53.596;22.520;2023-04-25T14:46:37;7.67;;;6.63;;
20399;SDS011;10359;53.596;22.520;2023-04-25T14:49:07;7.23;;;6.33;;
20399;SDS011;10359;53.596;22.520;2023-04-25T14:51:36;7.00;;;6.30;;